New Hampton, IA (50659)

5:45 AM CDT on August 27, 2016 (GMT -0500)
Charles City Municipal | | Change Station

Elev 1125 ft 43.07 °N, 92.61 °W | Updated 10 minutes ago

Overcast
Overcast
61 °F
Feels Like 61 °F
N
13
Wind Variable Wind from East

Today
High -- | Low -- °F
--% Chance of Precip.
Yesterday
High -- | Low -- °F
Precip. -- in
Pressure 30.04 in
Visibility 10.0 miles
Clouds Scattered Clouds 2800 ft
Overcast 3500 ft
Dew Point 61 °F
Humidity 100%
Rainfall 0.02 in
Snow Depth Not available.
6:28 AM 7:51 PM
Waning Crescent, 25% visible
METAR KCCY 271035Z AUTO 09011KT 10SM SCT028 OVC035 16/16 A3004 RMK AO2
Pressure 30.04 in
Visibility 10.0 miles
Clouds Scattered Clouds 2800 ft
Overcast 3500 ft
Dew Point 61 °F
Humidity 100%
Rainfall 0.02 in
Snow Depth Not available.
6:28 AM 7:51 PM
Waning Crescent, 25% visible
METAR KCCY 271035Z AUTO 09011KT 10SM SCT028 OVC035 16/16 A3004 RMK AO2

10-Day Weather Forecast

Almanac

Astronomy

Aug. 27, 2016 Rise Set
Actual Time
Civil Twilight
Nautical Twilight
Astronomical Twilight
Moon
Length of Visible Light
Length of Day
Tomorrow will be .
, % of the Moon is Illuminated

Today's Extremes

State Highs State Lows

Community

WunderPhotos

Upload Photos

1,935,321 photos uploaded!

WunderBlog® & News

Nearby

Air Quality

  Air Quality AQ Index Pollutant
Not available.

Snow Depth

Station Depth Elevation

Earthquake Activity

City Distance Mag. Time & Date
Minimum magnitude displayed is 2.5.

Coastal Water Temperatures

Place Temperature

Stations

Nearby Weather Stations

Station Location Temp. Windchill Dew Point Humidity Wind Precip. Elev Updated Type
                   

Watches & Warnings

There are currently no watches in effect.